createdAt,value
2022-09-30T00:03:56.763Z,83.85
2022-09-30T00:08:57.227Z,84.02
2022-09-30T00:13:57.693Z,84.06
2022-09-30T00:18:57.475Z,84.16
2022-09-30T00:23:57.389Z,84.28
2022-09-30T00:28:57.781Z,84.31
2022-09-30T00:34:11.035Z,84.36
2022-09-30T00:39:10.429Z,84.36
2022-09-30T00:44:10.469Z,84.47
2022-09-30T00:49:10.797Z,84.49
2022-09-30T00:54:10.438Z,84.45
2022-09-30T00:59:10.462Z,84.44
2022-09-30T01:04:10.514Z,84.46
2022-09-30T01:09:10.491Z,84.43
2022-09-30T01:14:10.396Z,84.49
2022-09-30T01:19:10.481Z,84.50
2022-09-30T01:24:10.415Z,84.64
2022-09-30T01:29:10.491Z,84.62
2022-09-30T01:34:10.392Z,84.62
2022-09-30T01:39:10.475Z,84.70
2022-09-30T01:44:10.870Z,84.81
2022-09-30T01:49:10.372Z,84.90
2022-09-30T01:54:10.432Z,84.87
2022-09-30T01:59:10.602Z,84.85
2022-09-30T02:04:10.800Z,84.90
2022-09-30T02:09:10.763Z,84.93
2022-09-30T02:14:10.888Z,85.07
2022-09-30T02:19:10.384Z,85.03
2022-09-30T02:24:10.433Z,85.04
2022-09-30T02:29:10.467Z,85.04
2022-09-30T02:34:10.493Z,85.13
2022-09-30T02:39:10.483Z,85.22
2022-09-30T02:44:10.493Z,85.27
2022-09-30T02:49:10.491Z,85.31
2022-09-30T02:54:10.445Z,85.27
2022-09-30T02:59:10.459Z,85.44
2022-09-30T03:04:10.522Z,85.39
2022-09-30T03:09:10.765Z,85.35
2022-09-30T03:14:10.484Z,85.31
2022-09-30T03:19:10.516Z,85.31
2022-09-30T03:24:10.567Z,85.42
2022-09-30T03:29:10.497Z,85.56
2022-09-30T03:34:10.464Z,85.56
2022-09-30T03:39:10.477Z,85.55
2022-09-30T03:44:10.553Z,85.63
2022-09-30T03:49:10.429Z,85.62
2022-09-30T03:54:10.759Z,85.68
2022-09-30T03:59:10.510Z,85.79
2022-09-30T04:04:12.454Z,85.81
2022-09-30T04:09:12.598Z,85.72
2022-09-30T04:14:12.566Z,85.71
2022-09-30T04:19:12.483Z,85.72
2022-09-30T04:24:12.499Z,85.83
2022-09-30T04:29:12.572Z,85.87
2022-09-30T04:34:12.491Z,85.92
2022-09-30T04:39:12.567Z,85.93
2022-09-30T04:44:13.119Z,85.96
2022-09-30T04:49:13.506Z,85.96
2022-09-30T04:54:13.606Z,86.00
2022-09-30T04:59:13.508Z,86.03
2022-09-30T05:04:13.542Z,86.07
2022-09-30T05:09:13.597Z,86.10
2022-09-30T05:14:13.645Z,86.14
2022-09-30T05:19:13.612Z,86.29
2022-09-30T05:24:13.576Z,86.24
2022-09-30T05:29:13.650Z,86.21
2022-09-30T05:34:16.209Z,86.27
2022-09-30T05:39:16.564Z,86.34
2022-09-30T05:44:16.585Z,86.19
2022-09-30T05:49:16.601Z,86.19
2022-09-30T05:54:16.537Z,86.12
2022-09-30T05:59:16.571Z,86.08
2022-09-30T06:04:16.624Z,85.95
2022-09-30T06:09:16.604Z,85.93
2022-09-30T06:14:18.877Z,85.96
2022-09-30T06:19:19.346Z,85.85
2022-09-30T06:24:19.538Z,85.79
2022-09-30T06:29:19.579Z,85.67
2022-09-30T06:34:19.793Z,85.53
2022-09-30T06:39:19.710Z,85.36
2022-09-30T06:44:19.632Z,85.25
2022-09-30T06:49:19.599Z,85.11
2022-09-30T06:54:20.506Z,84.92
2022-09-30T06:59:20.639Z,84.62
2022-09-30T07:04:20.631Z,84.46
2022-09-30T07:09:20.762Z,84.23
2022-09-30T07:14:22.924Z,83.99
2022-09-30T07:19:22.905Z,83.75
2022-09-30T07:24:22.632Z,83.54
2022-09-30T07:29:22.876Z,83.26
2022-09-30T07:34:23.504Z,83.06
2022-09-30T07:39:23.701Z,82.88
2022-09-30T07:44:25.041Z,82.72
2022-09-30T07:49:25.366Z,82.38
2022-09-30T07:54:25.717Z,82.10
2022-09-30T07:59:26.722Z,81.63
2022-09-30T08:04:26.740Z,74.25
2022-09-30T08:09:26.884Z,65.22
2022-09-30T08:14:26.747Z,62.74
2022-09-30T08:19:26.649Z,59.75
2022-09-30T08:24:27.107Z,54.95
2022-09-30T08:29:54.535Z,50.01
2022-09-30T08:34:32.394Z,48.17
2022-09-30T08:39:32.778Z,49.03
2022-09-30T08:44:32.770Z,48.23
2022-09-30T08:49:32.750Z,48.02
2022-09-30T08:54:34.570Z,45.46
2022-09-30T08:59:34.681Z,46.17
2022-09-30T09:04:34.722Z,42.84
2022-09-30T09:09:34.684Z,43.16
2022-09-30T09:14:34.746Z,42.00
2022-09-30T09:19:34.704Z,40.82
2022-09-30T09:24:34.747Z,37.27
2022-09-30T09:29:34.747Z,40.39
2022-09-30T09:34:38.307Z,44.39
2022-09-30T09:39:36.666Z,45.83
2022-09-30T09:44:36.812Z,42.07
2022-09-30T09:49:39.087Z,45.13
2022-09-30T09:54:40.840Z,46.57
2022-09-30T09:59:40.733Z,44.39
2022-09-30T10:04:41.557Z,44.71
2022-09-30T10:09:42.323Z,47.01
2022-09-30T10:14:43.984Z,47.85
2022-09-30T10:19:44.669Z,50.10
2022-09-30T10:24:44.709Z,51.71
2022-09-30T10:29:44.742Z,52.42
2022-09-30T10:34:44.812Z,52.92
2022-09-30T10:39:44.825Z,53.88
2022-09-30T10:44:45.527Z,54.57
2022-09-30T10:49:45.743Z,54.97
2022-09-30T10:54:45.855Z,55.22
2022-09-30T10:59:45.905Z,55.77
2022-09-30T11:04:47.880Z,56.20
2022-09-30T11:09:47.785Z,56.37
2022-09-30T11:14:47.910Z,56.80
2022-09-30T11:19:48.039Z,56.54
2022-09-30T11:24:47.772Z,56.76
2022-09-30T11:29:47.862Z,56.99
2022-09-30T11:34:47.831Z,57.04
2022-09-30T11:39:47.798Z,56.96
2022-09-30T11:44:47.969Z,57.28
2022-09-30T11:49:47.860Z,57.45
2022-09-30T11:54:47.781Z,57.51
2022-09-30T11:59:47.813Z,57.46
2022-09-30T12:04:47.847Z,57.46
2022-09-30T12:09:47.903Z,57.53
2022-09-30T12:14:47.840Z,57.46
2022-09-30T12:19:47.860Z,57.68
2022-09-30T12:24:47.923Z,57.70
2022-09-30T12:30:06.287Z,58.10
2022-09-30T12:35:05.871Z,57.86
2022-09-30T12:40:05.908Z,57.80
2022-09-30T12:45:05.849Z,56.95
2022-09-30T12:50:06.556Z,57.07
2022-09-30T12:55:06.855Z,57.29
2022-09-30T13:00:08.014Z,57.38
2022-09-30T13:05:07.856Z,57.35
2022-09-30T13:10:07.899Z,56.97
2022-09-30T13:15:11.522Z,56.47
2022-09-30T13:20:10.701Z,56.42
2022-09-30T13:25:10.958Z,55.99
2022-09-30T13:30:10.891Z,56.07
2022-09-30T13:35:10.939Z,55.70
2022-09-30T13:40:11.364Z,55.01
2022-09-30T13:45:11.002Z,54.28
2022-09-30T13:50:10.932Z,54.24
2022-09-30T13:55:10.966Z,54.41
2022-09-30T14:00:13.816Z,54.62
2022-09-30T14:05:14.616Z,54.49
2022-09-30T14:10:14.958Z,54.00
2022-09-30T14:15:14.997Z,53.19
2022-09-30T14:20:14.976Z,53.12
2022-09-30T14:25:15.114Z,53.31
2022-09-30T14:30:14.911Z,53.74
2022-09-30T14:35:15.015Z,54.13
2022-09-30T14:40:14.985Z,54.10
2022-09-30T14:45:15.431Z,52.98
2022-09-30T14:50:15.747Z,53.46
2022-09-30T14:55:16.721Z,53.81
2022-09-30T15:00:17.358Z,54.21
2022-09-30T15:05:17.344Z,54.55
2022-09-30T15:10:17.211Z,54.75
2022-09-30T15:15:17.099Z,55.27
2022-09-30T15:20:17.367Z,55.68
2022-09-30T15:25:16.970Z,56.13
2022-09-30T15:30:17.752Z,56.50
2022-09-30T15:35:19.094Z,56.83
2022-09-30T15:40:37.684Z,57.15
2022-09-30T15:45:39.057Z,57.48
2022-09-30T15:50:39.088Z,57.92
2022-09-30T15:55:41.118Z,58.15
2022-09-30T16:00:41.039Z,58.28
2022-09-30T16:05:41.584Z,58.44
2022-09-30T16:10:41.762Z,58.71
2022-09-30T16:15:42.156Z,58.94
2022-09-30T16:20:42.036Z,59.28
2022-09-30T16:25:43.526Z,59.60
2022-09-30T16:30:42.962Z,59.81
2022-09-30T16:35:43.038Z,60.08
2022-09-30T16:40:43.080Z,60.46
2022-09-30T16:45:43.358Z,60.65
2022-09-30T16:50:43.092Z,60.88
2022-09-30T16:55:44.386Z,61.31
2022-09-30T17:00:44.886Z,61.80
2022-09-30T17:05:45.101Z,62.25
2022-09-30T17:10:45.667Z,62.69
2022-09-30T17:15:46.402Z,63.20
2022-09-30T17:20:48.039Z,63.53
2022-09-30T17:25:48.747Z,64.04
2022-09-30T17:30:49.968Z,64.54
2022-09-30T17:35:50.491Z,65.02
2022-09-30T17:41:08.329Z,65.76
2022-09-30T17:46:08.101Z,66.28
2022-09-30T17:51:08.522Z,66.46
2022-09-30T17:56:09.708Z,66.67
2022-09-30T18:01:10.151Z,66.94
2022-09-30T18:06:10.135Z,67.15
2022-09-30T18:11:11.054Z,67.17
2022-09-30T18:16:11.148Z,67.32
2022-09-30T18:21:11.139Z,67.49
2022-09-30T18:26:11.654Z,67.51
2022-09-30T18:31:11.080Z,67.62
2022-09-30T18:36:11.171Z,67.58
2022-09-30T18:41:11.712Z,67.57
2022-09-30T18:46:13.372Z,67.55
2022-09-30T18:51:13.288Z,67.45
2022-09-30T18:56:13.171Z,67.32
2022-09-30T19:01:13.291Z,67.39
2022-09-30T19:06:13.188Z,67.31
2022-09-30T19:11:14.197Z,67.31
2022-09-30T19:16:16.125Z,67.33
2022-09-30T19:21:18.178Z,67.18
2022-09-30T19:26:18.894Z,67.33
2022-09-30T19:31:20.358Z,67.46
2022-09-30T19:36:20.189Z,67.52
2022-09-30T19:41:20.115Z,67.65
2022-09-30T19:46:21.204Z,67.77
2022-09-30T19:51:21.332Z,67.91
2022-09-30T19:56:21.338Z,68.04
2022-09-30T20:01:21.629Z,68.16
2022-09-30T20:06:22.954Z,68.39
2022-09-30T20:11:23.768Z,68.56
2022-09-30T20:16:24.167Z,68.81
2022-09-30T20:21:24.178Z,68.91
2022-09-30T20:26:24.232Z,69.05
2022-09-30T20:31:24.430Z,69.18
2022-09-30T20:36:24.739Z,69.44
2022-09-30T20:41:24.137Z,69.61
2022-09-30T20:46:24.159Z,69.82
2022-09-30T20:51:24.472Z,69.87
2022-09-30T20:56:24.449Z,70.12
2022-09-30T21:01:24.384Z,70.11
2022-09-30T21:06:24.209Z,70.11
2022-09-30T21:11:24.220Z,70.09
2022-09-30T21:16:24.890Z,70.01
2022-09-30T21:21:26.462Z,69.97
2022-09-30T21:26:28.272Z,69.91
2022-09-30T21:31:28.320Z,69.81
2022-09-30T21:36:28.404Z,69.77
2022-09-30T21:41:28.222Z,69.67
2022-09-30T21:46:29.055Z,69.68
2022-09-30T21:51:31.711Z,69.64
2022-09-30T21:56:32.559Z,69.69
2022-09-30T22:01:32.704Z,69.71
2022-09-30T22:06:33.315Z,69.80
2022-09-30T22:11:33.663Z,69.79
2022-09-30T22:16:34.639Z,69.82
2022-09-30T22:21:34.664Z,69.85
2022-09-30T22:26:35.300Z,69.91
2022-09-30T22:31:35.673Z,69.99
2022-09-30T22:36:54.565Z,70.07
2022-09-30T22:41:54.249Z,70.09
2022-09-30T22:46:54.399Z,70.18
2022-09-30T22:51:54.287Z,70.14
2022-09-30T22:56:54.558Z,70.17
2022-09-30T23:01:54.669Z,70.16
2022-09-30T23:06:55.009Z,70.13
2022-09-30T23:11:56.484Z,70.13
2022-09-30T23:16:56.389Z,70.10
2022-09-30T23:21:56.523Z,70.06
2022-09-30T23:26:56.337Z,70.01
2022-09-30T23:32:20.966Z,70.03
2022-09-30T23:37:21.403Z,70.00
2022-09-30T23:42:21.316Z,70.03
2022-09-30T23:47:21.310Z,70.07
2022-09-30T23:52:21.366Z,70.11
2022-09-30T23:57:21.754Z,70.08
